createdAt,value
2023-01-27T00:27:26.202Z,32.81
2023-01-27T00:28:26.079Z,32.76
2023-01-27T00:29:26.023Z,32.75
2023-01-27T00:30:25.858Z,32.76
2023-01-27T00:31:25.789Z,32.78
2023-01-27T00:32:25.614Z,32.73
2023-01-27T00:33:25.547Z,32.73
2023-01-27T00:34:25.383Z,32.73
2023-01-27T00:35:25.294Z,32.72
2023-01-27T00:36:25.158Z,32.75
2023-01-27T00:37:25.050Z,32.72
2023-01-27T00:38:24.933Z,32.75
2023-01-27T00:39:24.828Z,32.78
2023-01-27T00:40:24.701Z,32.73
2023-01-27T00:41:25.118Z,32.72
2023-01-27T00:42:24.479Z,32.70
2023-01-27T00:43:24.365Z,32.74
2023-01-27T00:44:24.264Z,32.75
2023-01-27T00:45:24.135Z,32.71
2023-01-27T00:46:24.062Z,32.71
2023-01-27T00:47:23.899Z,32.61
2023-01-27T00:48:23.785Z,32.67
2023-01-27T00:49:23.724Z,32.68
2023-01-27T00:50:23.543Z,32.69
2023-01-27T00:51:23.434Z,32.64
2023-01-27T00:52:23.370Z,32.65
2023-01-27T00:53:23.195Z,32.66
2023-01-27T00:54:23.079Z,32.64
2023-01-27T00:55:22.949Z,32.65
2023-01-27T00:56:22.852Z,32.65
2023-01-27T00:57:22.721Z,32.65
2023-01-27T00:58:22.609Z,32.65
2023-01-27T00:59:22.569Z,32.68
2023-01-27T01:00:22.373Z,32.62
2023-01-27T01:01:22.273Z,32.60
2023-01-27T01:02:22.126Z,32.60
2023-01-27T01:03:22.629Z,32.61
2023-01-27T01:04:21.903Z,32.66
2023-01-27T01:05:21.774Z,32.63
2023-01-27T01:06:21.674Z,32.62
2023-01-27T01:07:21.549Z,32.65
2023-01-27T01:08:21.426Z,32.59
2023-01-27T02:16:13.964Z,32.41
2023-01-27T02:17:13.635Z,32.41
2023-01-27T02:18:13.534Z,32.40
2023-01-27T02:19:13.428Z,32.41
2023-01-27T02:20:13.312Z,32.46
2023-01-27T02:21:13.209Z,32.40
2023-01-27T02:22:13.102Z,32.42
2023-01-27T02:23:12.976Z,32.38
2023-01-27T02:24:12.898Z,32.41
2023-01-27T02:25:12.990Z,32.34
2023-01-27T02:26:12.650Z,32.34
2023-01-27T02:27:12.532Z,32.38
2023-01-27T02:28:12.417Z,32.38
2023-01-27T02:29:12.299Z,32.33
2023-01-27T02:30:12.199Z,32.37
2023-01-27T02:31:12.162Z,32.37
2023-01-27T02:32:12.026Z,32.36
2023-01-27T02:33:11.853Z,32.37
2023-01-27T02:34:11.738Z,32.30
2023-01-27T02:35:12.017Z,32.26
2023-01-27T02:36:11.502Z,32.26
2023-01-27T03:10:07.272Z,31.88
2023-01-27T03:11:07.118Z,31.84
2023-01-27T03:12:07.063Z,31.83
2023-01-27T03:13:06.867Z,31.87
2023-01-27T03:14:06.737Z,31.86
2023-01-27T03:15:06.603Z,31.83
2023-01-27T03:16:06.500Z,31.83
2023-01-27T03:17:06.351Z,31.83
2023-01-27T03:18:06.241Z,31.80
2023-01-27T03:19:06.107Z,31.80
2023-01-27T03:20:05.957Z,31.84
2023-01-27T03:21:05.829Z,31.78
2023-01-27T03:22:05.693Z,31.79
2023-01-27T03:23:05.574Z,31.83
2023-01-27T03:24:05.483Z,31.80
2023-01-27T03:25:05.308Z,31.81
2023-01-27T03:26:05.245Z,31.75
2023-01-27T03:27:05.060Z,31.77
2023-01-27T03:28:04.921Z,31.77
2023-01-27T03:29:04.798Z,31.76
2023-01-27T03:30:04.651Z,31.76
2023-01-27T03:31:04.653Z,31.76
2023-01-27T03:32:04.408Z,31.80
2023-01-27T03:33:04.307Z,31.76
2023-01-27T03:34:04.146Z,31.75
2023-01-27T03:35:04.052Z,31.76
2023-01-27T03:36:03.882Z,31.75
2023-01-27T03:37:03.786Z,31.70
2023-01-27T03:38:03.631Z,31.68
2023-01-27T03:39:03.521Z,31.76
2023-01-27T03:40:03.399Z,31.75
2023-01-27T03:41:03.260Z,31.73
2023-01-27T03:42:03.114Z,31.68
2023-01-27T03:43:02.982Z,31.72
2023-01-27T03:44:02.865Z,31.73
2023-01-27T03:45:02.740Z,31.72
2023-01-27T03:46:02.704Z,31.72
2023-01-27T03:47:02.457Z,31.73
2023-01-27T03:48:02.388Z,31.72
2023-01-27T03:49:02.181Z,31.73
2023-01-27T03:50:02.035Z,31.73
2023-01-27T03:51:01.888Z,31.71
2023-01-27T03:52:01.789Z,31.75
2023-01-27T03:53:01.625Z,31.72
2023-01-27T03:54:01.520Z,31.72
2023-01-27T04:35:55.486Z,31.68
2023-01-27T04:36:55.371Z,31.66
2023-01-27T04:37:55.260Z,31.70
2023-01-27T04:38:55.107Z,31.66
2023-01-27T04:39:54.978Z,31.61
2023-01-27T04:40:54.849Z,31.72
2023-01-27T04:41:54.708Z,31.67
2023-01-27T04:42:54.573Z,31.65
2023-01-27T04:43:54.444Z,31.67
2023-01-27T04:44:54.308Z,31.65
2023-01-27T04:45:54.192Z,31.65
2023-01-27T04:46:54.063Z,31.67
2023-01-27T04:47:53.911Z,31.68
2023-01-27T04:48:53.771Z,31.66
2023-01-27T04:49:53.647Z,31.62
2023-01-27T04:50:53.511Z,31.65
2023-01-27T04:51:53.391Z,31.65
2023-01-27T04:52:53.246Z,31.69
2023-01-27T04:53:53.125Z,31.64
2023-01-27T04:54:52.984Z,31.70
2023-01-27T04:55:52.846Z,31.64
2023-01-27T04:56:52.732Z,31.68
2023-01-27T04:57:52.593Z,31.65
2023-01-27T04:58:52.496Z,31.66
2023-01-27T04:59:53.297Z,31.62
2023-01-27T05:00:52.190Z,31.68
2023-01-27T05:01:52.342Z,31.64
2023-01-27T05:02:51.968Z,31.62
2023-01-27T05:03:51.873Z,31.61
2023-01-27T05:04:51.674Z,31.65
2023-01-27T05:05:51.535Z,31.62
2023-01-27T05:06:51.409Z,31.67
2023-01-27T05:43:46.338Z,31.54
2023-01-27T05:46:45.953Z,31.56
2023-01-27T05:47:45.769Z,31.54
2023-01-27T05:48:45.728Z,31.55
2023-01-27T05:49:45.498Z,31.55
2023-01-27T05:50:45.360Z,31.54
2023-01-27T05:51:45.237Z,31.57
2023-01-27T05:52:45.099Z,31.57
2023-01-27T05:53:44.965Z,31.55
2023-01-27T05:54:44.835Z,31.51
2023-01-27T05:55:44.695Z,31.59
2023-01-27T05:56:44.564Z,31.51
2023-01-27T05:57:44.438Z,31.54
2023-01-27T05:58:44.316Z,31.56
2023-01-27T05:59:44.158Z,31.57
2023-01-27T06:00:44.037Z,31.51
2023-01-27T06:01:43.941Z,31.56
2023-01-27T06:02:43.784Z,31.57
2023-01-27T06:03:43.733Z,31.53
2023-01-27T06:04:43.498Z,31.53
2023-01-27T06:05:43.362Z,31.58
2023-01-27T06:06:43.240Z,31.56
2023-01-27T06:07:43.146Z,31.55
2023-01-27T06:08:42.988Z,31.51
2023-01-27T06:09:42.838Z,31.51
2023-01-27T06:10:42.709Z,31.56
2023-01-27T06:11:42.561Z,31.57
2023-01-27T06:12:42.461Z,31.55
2023-01-27T06:13:42.724Z,31.47
2023-01-27T06:14:42.168Z,31.54
2023-01-27T06:15:42.022Z,31.47
2023-01-27T06:16:41.931Z,31.54
2023-01-27T06:17:41.751Z,31.51
2023-01-27T06:18:41.613Z,31.53
2023-01-27T06:19:41.477Z,31.54
2023-01-27T06:44:37.595Z,32.20
2023-01-27T06:45:37.438Z,32.14
2023-01-27T06:46:37.329Z,32.15
2023-01-27T06:47:37.093Z,32.22
2023-01-27T06:48:36.981Z,32.22
2023-01-27T06:49:36.768Z,32.18
2023-01-27T06:50:36.632Z,32.21
2023-01-27T06:51:36.478Z,32.28
2023-01-27T06:52:36.280Z,32.26
2023-01-27T06:53:36.132Z,32.26
2023-01-27T06:54:35.939Z,32.29
2023-01-27T06:55:35.797Z,32.28
2023-01-27T06:56:35.615Z,32.29
2023-01-27T06:57:35.445Z,32.29
2023-01-27T06:58:35.370Z,32.32
2023-01-27T06:59:35.113Z,32.29
2023-01-27T07:00:34.998Z,32.26
2023-01-27T07:01:34.878Z,32.30
2023-01-27T07:02:34.658Z,32.33
2023-01-27T07:03:35.543Z,32.33
2023-01-27T07:04:34.429Z,32.26
2023-01-27T07:05:34.214Z,32.31
2023-01-27T07:06:34.080Z,32.28
2023-01-27T07:07:33.942Z,32.26
2023-01-27T07:08:33.807Z,32.31
2023-01-27T07:09:50.562Z,32.28
2023-01-27T07:10:34.498Z,32.24
2023-01-27T07:11:33.322Z,32.21
2023-01-27T07:12:33.167Z,32.24
2023-01-27T07:13:33.010Z,32.27
2023-01-27T07:14:32.842Z,32.28
2023-01-27T07:15:32.688Z,32.25
2023-01-27T07:16:32.581Z,32.31
2023-01-27T07:17:32.359Z,32.31
2023-01-27T07:18:32.202Z,32.24
2023-01-27T07:19:32.044Z,32.24
2023-01-27T07:20:32.884Z,32.23
2023-01-27T07:21:31.720Z,32.20
2023-01-27T07:22:31.556Z,32.21
2023-01-27T07:23:31.414Z,32.20
2023-01-27T07:24:31.233Z,32.24
2023-01-27T07:25:31.066Z,32.30
2023-01-27T07:26:30.895Z,32.42
2023-01-27T07:27:30.746Z,32.34
2023-01-27T07:28:30.636Z,32.34
2023-01-27T07:29:31.175Z,32.33
2023-01-27T07:30:30.420Z,32.37
2023-01-27T07:31:30.208Z,32.31
2023-01-27T07:32:29.925Z,32.26
2023-01-27T07:33:29.763Z,32.24
2023-01-27T07:34:29.620Z,32.29
2023-01-27T07:35:29.451Z,32.26
2023-01-27T07:36:29.291Z,32.23
2023-01-27T07:37:29.151Z,32.18
2023-01-27T07:38:28.958Z,32.14
2023-01-27T07:39:28.862Z,32.18
2023-01-27T07:40:28.691Z,32.19
2023-01-27T07:41:29.472Z,32.19
2023-01-27T07:42:28.335Z,32.15
2023-01-27T07:43:28.143Z,32.15
2023-01-27T07:44:27.987Z,32.12
2023-01-27T07:45:27.872Z,32.16
2023-01-27T07:46:27.648Z,32.18
2023-01-27T07:47:27.480Z,32.16
2023-01-27T07:48:27.391Z,32.15
2023-01-27T07:49:27.752Z,32.12
2023-01-27T07:50:27.006Z,32.14
2023-01-27T07:51:26.896Z,32.09
2023-01-27T07:52:26.655Z,32.12
2023-01-27T07:53:26.495Z,32.12
2023-01-27T07:54:26.335Z,32.09
2023-01-27T07:55:26.764Z,32.08
2023-01-27T07:56:25.980Z,32.05
2023-01-27T07:57:25.828Z,32.14
2023-01-27T07:58:25.641Z,32.11
2023-01-27T13:29:47.543Z,35.65
2023-01-27T13:37:47.567Z,35.57
2023-01-27T13:38:47.643Z,35.53
2023-01-27T13:39:47.590Z,35.52
2023-01-27T13:40:48.448Z,35.51
2023-01-27T13:41:47.593Z,35.52
2023-01-27T13:42:47.567Z,35.53
2023-01-27T13:43:47.579Z,35.46
2023-01-27T13:44:47.604Z,35.48
2023-01-27T13:45:47.598Z,35.42
2023-01-27T13:46:47.645Z,35.40
2023-01-27T13:47:48.385Z,35.44
2023-01-27T13:48:47.612Z,35.43
2023-01-27T13:49:47.625Z,35.44
2023-01-27T13:50:47.643Z,35.44
2023-01-27T13:51:47.665Z,35.40
2023-01-27T13:52:47.646Z,35.36
2023-01-27T13:53:47.683Z,35.44
2023-01-27T13:54:47.652Z,35.43
2023-01-27T13:55:47.669Z,35.40
2023-01-27T13:56:47.688Z,35.40
2023-01-27T13:57:48.394Z,35.38
2023-01-27T13:58:47.695Z,35.36
2023-01-27T13:59:47.742Z,35.35
2023-01-27T14:00:47.726Z,35.36
2023-01-27T14:01:47.803Z,35.40
2023-01-27T14:02:47.718Z,35.37
2023-01-27T14:03:47.850Z,35.34
2023-01-27T14:04:47.797Z,35.32
2023-01-27T14:05:47.767Z,35.35
2023-01-27T14:06:47.755Z,35.35
2023-01-27T14:07:47.776Z,35.33
2023-01-27T14:08:47.789Z,35.35
2023-01-27T14:09:47.890Z,35.33
2023-01-27T14:10:47.815Z,35.33
2023-01-27T14:11:47.825Z,35.30
2023-01-27T14:12:47.916Z,35.32
2023-01-27T14:13:47.857Z,35.33
2023-01-27T14:14:57.824Z,35.29
2023-01-27T14:15:48.936Z,35.30
2023-01-27T14:16:47.781Z,35.23
2023-01-27T14:17:47.753Z,35.28
2023-01-27T14:18:47.709Z,35.26
2023-01-27T14:19:47.762Z,35.28
2023-01-27T14:20:47.628Z,35.25
2023-01-27T14:21:50.276Z,35.24
2023-01-27T14:22:48.551Z,35.26
2023-01-27T14:23:47.512Z,35.23
2023-01-27T14:24:47.466Z,35.22
2023-01-27T14:25:47.419Z,35.23
2023-01-27T14:26:47.374Z,35.24
2023-01-27T14:27:47.333Z,35.19
2023-01-27T14:28:47.285Z,35.18
2023-01-27T14:29:47.228Z,35.14
2023-01-27T14:30:47.203Z,35.19
2023-01-27T14:31:47.198Z,35.14
2023-01-27T14:32:47.156Z,35.19
2023-01-27T14:33:47.165Z,35.13
2023-01-27T14:34:47.183Z,35.16
2023-01-27T14:35:47.188Z,35.14
2023-01-27T14:36:47.201Z,35.15
2023-01-27T14:37:47.215Z,35.09
2023-01-27T14:38:48.337Z,35.11
2023-01-27T14:39:47.233Z,35.14
2023-01-27T14:40:47.239Z,35.13
2023-01-27T14:41:47.301Z,35.11
2023-01-27T14:42:47.277Z,35.11
2023-01-27T14:43:47.302Z,35.15
2023-01-27T14:45:01.200Z,35.12
2023-01-27T14:45:48.259Z,35.12
2023-01-27T14:46:47.277Z,35.08
2023-01-27T14:47:47.175Z,35.12
2023-01-27T14:48:47.148Z,35.07
2023-01-27T14:49:47.095Z,35.07
2023-01-27T14:50:47.073Z,35.08
2023-01-27T14:51:47.017Z,35.04
2023-01-27T14:52:46.980Z,35.09
2023-01-27T14:53:46.931Z,35.08
2023-01-27T14:54:47.030Z,35.08
2023-01-27T14:55:46.997Z,35.03
2023-01-27T14:56:47.161Z,35.08
2023-01-27T14:57:47.043Z,35.08
2023-01-27T14:58:47.085Z,35.03
2023-01-27T14:59:47.106Z,35.06
2023-01-27T15:00:47.274Z,35.06
2023-01-27T15:01:47.232Z,35.06
2023-01-27T15:02:47.164Z,35.05
2023-01-27T15:03:47.189Z,35.05
2023-01-27T15:04:47.219Z,34.97
2023-01-27T15:05:47.279Z,35.02
2023-01-27T15:06:47.305Z,35.02
2023-01-27T15:07:47.300Z,35.04
2023-01-27T15:08:47.319Z,35.03
2023-01-27T15:09:47.355Z,35.04
2023-01-27T15:10:47.384Z,35.03
2023-01-27T15:11:47.410Z,35.00
2023-01-27T15:12:47.448Z,35.01
2023-01-27T15:13:47.478Z,35.02
2023-01-27T15:14:48.413Z,35.02
2023-01-27T15:15:47.528Z,34.97
2023-01-27T15:16:47.571Z,35.01
2023-01-27T15:17:47.611Z,35.05
2023-01-27T15:18:47.627Z,35.00
2023-01-27T15:19:47.707Z,35.05
2023-01-27T15:20:47.685Z,35.05
2023-01-27T15:21:47.722Z,35.06
2023-01-27T15:22:47.761Z,35.02
2023-01-27T15:23:47.799Z,35.04
2023-01-27T15:24:47.834Z,35.01
2023-01-27T15:25:47.882Z,35.04
2023-01-27T15:26:47.919Z,35.03
2023-01-27T15:27:47.950Z,35.03
2023-01-27T15:28:48.921Z,35.03
2023-01-27T15:29:48.022Z,35.04
2023-01-27T15:30:48.089Z,35.09
2023-01-27T15:31:48.134Z,35.05
2023-01-27T15:32:48.087Z,35.03
2023-01-27T15:33:48.131Z,35.12
2023-01-27T15:34:48.217Z,35.06
2023-01-27T15:35:48.256Z,35.06
2023-01-27T15:36:48.275Z,35.06
2023-01-27T15:37:48.224Z,35.10
2023-01-27T15:38:48.251Z,35.08
2023-01-27T15:39:55.789Z,35.05
2023-01-27T15:40:49.240Z,35.10
2023-01-27T15:41:48.205Z,35.04
2023-01-27T15:42:48.172Z,35.02
2023-01-27T15:43:48.150Z,35.09
2023-01-27T15:44:48.101Z,35.11
2023-01-27T15:45:48.184Z,35.03
2023-01-27T15:46:48.017Z,35.04
2023-01-27T15:47:47.987Z,35.05
2023-01-27T15:48:47.952Z,35.09
2023-01-27T15:49:47.917Z,35.10
2023-01-27T15:50:47.889Z,35.06
2023-01-27T15:51:47.840Z,35.17
2023-01-27T15:52:47.804Z,35.11
2023-01-27T15:53:47.770Z,35.13
2023-01-27T15:54:47.741Z,35.12
2023-01-27T15:55:47.724Z,35.10
2023-01-27T15:56:47.721Z,35.09
2023-01-27T15:57:47.728Z,35.09
2023-01-27T15:58:47.733Z,35.08
2023-01-27T15:59:58.462Z,35.04
2023-01-27T16:00:48.760Z,35.03
2023-01-27T16:01:47.662Z,35.03
2023-01-27T16:02:47.617Z,34.95
2023-01-27T16:03:47.586Z,34.99
2023-01-27T16:04:47.541Z,34.94
2023-01-27T16:05:47.515Z,34.97
2023-01-27T16:06:47.479Z,34.94
2023-01-27T16:07:47.441Z,34.90
2023-01-27T16:08:47.403Z,34.94
2023-01-27T16:09:47.389Z,34.93
2023-01-27T16:10:47.348Z,34.88
2023-01-27T16:11:47.306Z,34.89
2023-01-27T16:12:47.314Z,34.92
2023-01-27T16:13:47.274Z,34.85
2023-01-27T16:14:47.300Z,34.86
2023-01-27T16:15:47.313Z,34.87
2023-01-27T16:16:47.412Z,34.83
2023-01-27T16:17:47.363Z,34.84
2023-01-27T16:18:47.375Z,34.84
2023-01-27T16:19:47.384Z,34.85
2023-01-27T16:20:47.436Z,34.80
2023-01-27T16:21:47.386Z,34.82
2023-01-27T16:22:47.440Z,34.85
2023-01-27T16:23:47.388Z,34.80
2023-01-27T16:24:47.474Z,34.80
2023-01-27T16:25:47.414Z,34.80
2023-01-27T16:26:47.446Z,34.77
2023-01-27T16:27:47.478Z,34.77
2023-01-27T16:28:47.479Z,34.81
2023-01-27T16:29:47.496Z,34.75
2023-01-27T16:30:47.524Z,34.70
2023-01-27T16:31:47.548Z,34.75
2023-01-27T16:32:47.462Z,34.71
2023-01-27T16:33:47.455Z,34.70
2023-01-27T16:34:47.470Z,34.66
2023-01-27T16:35:47.478Z,34.69
2023-01-27T16:36:47.476Z,34.70
2023-01-27T16:37:47.496Z,34.70
2023-01-27T16:38:47.507Z,34.66
2023-01-27T16:39:47.512Z,34.66
2023-01-27T16:40:48.435Z,34.70
2023-01-27T16:41:47.540Z,34.66
2023-01-27T16:42:47.546Z,34.62
2023-01-27T16:43:47.538Z,34.66
2023-01-27T16:44:47.511Z,34.65
2023-01-27T16:45:47.528Z,34.65
2023-01-27T16:46:47.560Z,34.65
2023-01-27T16:47:47.505Z,34.64
2023-01-27T16:48:48.445Z,34.62
2023-01-27T16:49:47.524Z,34.61
2023-01-27T16:50:47.493Z,34.58
2023-01-27T16:51:47.483Z,34.57
2023-01-27T16:52:47.490Z,34.61
2023-01-27T16:53:47.528Z,34.59
2023-01-27T16:54:47.497Z,34.54
2023-01-27T16:55:47.506Z,34.53
2023-01-27T16:56:47.522Z,34.56
2023-01-27T16:57:47.955Z,34.56
2023-01-27T16:58:49.378Z,34.54
2023-01-27T16:59:47.443Z,34.55
2023-01-27T17:00:47.508Z,34.56
2023-01-27T17:01:47.416Z,34.55
2023-01-27T17:02:47.369Z,34.57
2023-01-27T17:03:47.947Z,34.59
2023-01-27T17:04:47.243Z,34.51
2023-01-27T17:05:47.209Z,34.55
2023-01-27T17:06:47.194Z,34.47
2023-01-27T17:07:47.144Z,34.51
2023-01-27T17:08:47.112Z,34.52
2023-01-27T17:09:47.059Z,34.51
2023-01-27T17:10:47.015Z,34.49
2023-01-27T17:11:46.984Z,34.48
2023-01-27T17:12:46.944Z,34.47
2023-01-27T17:13:46.899Z,34.46
2023-01-27T17:14:46.877Z,34.51
2023-01-27T17:15:46.820Z,34.48
2023-01-27T17:16:46.791Z,34.50
2023-01-27T17:17:46.726Z,34.45
2023-01-27T17:18:52.543Z,34.46
2023-01-27T17:19:47.657Z,34.42
2023-01-27T17:20:46.634Z,34.44
2023-01-27T17:21:46.599Z,34.44
2023-01-27T17:22:46.531Z,34.42
2023-01-27T17:23:46.495Z,34.43
2023-01-27T17:24:48.465Z,34.43
2023-01-27T17:25:46.411Z,34.41
2023-01-27T17:26:46.395Z,34.40
2023-01-27T17:27:46.349Z,34.42
2023-01-27T17:28:46.307Z,34.39
2023-01-27T17:29:46.272Z,34.38
2023-01-27T17:30:46.298Z,34.37
2023-01-27T17:31:46.292Z,34.37
2023-01-27T17:32:46.134Z,34.39
2023-01-27T17:33:46.088Z,34.39
2023-01-27T17:34:46.093Z,34.37
2023-01-27T17:35:46.035Z,34.36
2023-01-27T17:36:45.969Z,34.34
2023-01-27T17:37:45.944Z,34.34
2023-01-27T17:38:45.928Z,34.36
2023-01-27T17:39:45.866Z,34.35
2023-01-27T17:40:45.895Z,34.34
2023-01-27T17:41:45.792Z,34.37
2023-01-27T17:42:45.752Z,34.36
2023-01-27T17:43:45.709Z,34.29
2023-01-27T17:44:45.670Z,34.35
2023-01-27T17:45:45.640Z,34.30
2023-01-27T17:46:45.582Z,34.32
2023-01-27T17:47:45.549Z,34.28
2023-01-27T17:48:45.505Z,34.29
2023-01-27T17:49:45.481Z,34.29
2023-01-27T17:50:45.413Z,34.28
2023-01-27T17:51:45.482Z,34.29
2023-01-27T17:52:52.564Z,34.29
2023-01-27T17:53:46.281Z,34.29
2023-01-27T17:54:45.238Z,34.25
2023-01-27T17:55:45.207Z,34.29
2023-01-27T17:56:45.217Z,34.20
2023-01-27T17:57:45.160Z,34.25
2023-01-27T17:58:45.081Z,34.29
2023-01-27T17:59:45.026Z,34.24
2023-01-27T18:00:44.987Z,34.24
2023-01-27T18:01:45.013Z,34.21
2023-01-27T18:02:44.973Z,34.22
2023-01-27T18:03:44.993Z,34.21
2023-01-27T18:04:45.006Z,34.17
2023-01-27T18:05:45.037Z,34.21
2023-01-27T18:06:45.069Z,34.19
2023-01-27T18:07:45.156Z,34.17
2023-01-27T18:08:45.167Z,34.21
2023-01-27T18:09:45.145Z,34.19
2023-01-27T18:10:45.172Z,34.22
2023-01-27T18:11:45.211Z,34.19
2023-01-27T18:12:45.215Z,34.20
2023-01-27T18:13:45.233Z,34.17
2023-01-27T18:14:45.240Z,34.14
2023-01-27T18:15:45.298Z,34.17
2023-01-27T18:16:45.273Z,34.14
2023-01-27T18:17:45.305Z,34.19
2023-01-27T18:18:45.333Z,34.16
2023-01-27T18:19:45.339Z,34.12
2023-01-27T18:20:45.344Z,34.17
2023-01-27T18:21:45.367Z,34.11
2023-01-27T18:22:45.385Z,34.14
2023-01-27T18:23:45.388Z,34.12
2023-01-27T18:24:45.479Z,34.14
2023-01-27T18:25:45.428Z,34.15
2023-01-27T18:26:45.489Z,34.12
2023-01-27T18:27:45.443Z,34.12
2023-01-27T18:28:45.474Z,34.09
2023-01-27T18:29:45.499Z,34.09
2023-01-27T18:30:45.483Z,34.07
2023-01-27T18:31:45.577Z,34.07
2023-01-27T18:32:45.528Z,34.09
2023-01-27T18:33:45.544Z,34.09
2023-01-27T18:34:45.554Z,34.04
2023-01-27T18:35:46.479Z,34.09
2023-01-27T18:36:45.552Z,34.07
2023-01-27T18:37:45.549Z,34.01
2023-01-27T18:38:45.566Z,34.03
2023-01-27T18:39:45.594Z,34.05
2023-01-27T18:40:45.570Z,34.01
2023-01-27T18:41:45.568Z,34.01
2023-01-27T18:42:45.637Z,34.12
2023-01-27T18:43:45.555Z,34.03
2023-01-27T18:44:45.529Z,34.05
2023-01-27T18:45:45.520Z,34.01
2023-01-27T18:46:45.529Z,34.02
2023-01-27T18:47:45.444Z,34.02
2023-01-27T18:48:45.426Z,33.99
2023-01-27T18:49:45.392Z,34.02
2023-01-27T18:50:45.373Z,33.99
2023-01-27T18:51:45.344Z,34.02
2023-01-27T18:52:45.413Z,33.98
2023-01-27T18:53:45.269Z,33.98
2023-01-27T18:54:45.232Z,34.00
2023-01-27T18:55:45.270Z,33.99
2023-01-27T18:56:45.161Z,34.01
2023-01-27T18:57:45.129Z,33.97
2023-01-27T18:58:45.108Z,33.97
2023-01-27T18:59:45.111Z,33.95
2023-01-27T19:00:45.139Z,33.93
2023-01-27T19:01:45.108Z,33.98
2023-01-27T19:02:45.034Z,33.98
2023-01-27T19:03:45.014Z,33.97
2023-01-27T19:04:45.020Z,33.92
2023-01-27T19:05:44.989Z,33.94
2023-01-27T19:06:44.930Z,33.94
2023-01-27T19:07:44.911Z,33.94
2023-01-27T19:08:44.857Z,33.97
2023-01-27T19:09:44.860Z,33.93
2023-01-27T19:10:44.844Z,33.93
2023-01-27T19:11:44.797Z,33.90
2023-01-27T19:12:44.772Z,33.90
2023-01-27T19:13:44.768Z,33.97
2023-01-27T19:14:44.763Z,33.89
2023-01-27T19:15:44.988Z,33.89
2023-01-27T19:16:44.748Z,33.92
2023-01-27T19:17:44.745Z,33.88
2023-01-27T19:18:44.761Z,33.90
2023-01-27T19:19:44.788Z,33.88
2023-01-27T19:20:44.781Z,33.92
2023-01-27T19:21:44.730Z,33.85
2023-01-27T19:22:45.549Z,33.84
2023-01-27T19:23:44.766Z,33.85
2023-01-27T19:24:44.588Z,33.87
2023-01-27T19:25:44.533Z,33.85
2023-01-27T19:26:44.513Z,33.85
2023-01-27T19:27:44.481Z,33.84
2023-01-27T19:28:44.426Z,33.85
2023-01-27T19:29:44.395Z,33.83
2023-01-27T19:30:44.365Z,33.87
2023-01-27T22:45:39.498Z,33.05
2023-01-27T22:46:41.450Z,33.04
2023-01-27T22:47:39.278Z,33.04
2023-01-27T22:48:39.255Z,33.02
2023-01-27T22:49:39.209Z,33.02
2023-01-27T22:50:39.164Z,33.04
2023-01-27T22:51:39.121Z,33.01
2023-01-27T22:53:39.039Z,33.05
2023-01-27T22:54:38.996Z,33.02
2023-01-27T22:55:38.996Z,33.02
2023-01-27T22:56:38.909Z,33.04
2023-01-27T22:57:38.865Z,33.01
2023-01-27T22:58:38.834Z,33.01
2023-01-27T22:59:38.785Z,33.02
2023-01-27T23:00:38.751Z,33.02
2023-01-27T23:01:38.751Z,33.01
2023-01-27T23:02:38.706Z,33.01
2023-01-27T23:03:39.577Z,32.97
2023-01-27T23:04:38.623Z,33.05
2023-01-27T23:05:38.541Z,33.00
2023-01-27T23:06:38.499Z,33.05
2023-01-27T23:07:38.450Z,32.98
2023-01-27T23:08:38.425Z,32.98
2023-01-27T23:09:38.373Z,32.97
2023-01-27T23:10:38.336Z,32.98
2023-01-27T23:11:38.285Z,32.94
2023-01-27T23:12:38.246Z,32.98
2023-01-27T23:13:38.217Z,32.95
2023-01-27T23:14:38.175Z,33.00
2023-01-27T23:15:38.124Z,32.97
2023-01-27T23:16:38.155Z,32.98
2023-01-27T23:17:38.041Z,33.01
2023-01-27T23:18:37.997Z,32.95
2023-01-27T23:19:37.963Z,32.94
2023-01-27T23:20:37.907Z,32.93
2023-01-27T23:21:37.887Z,32.93
2023-01-27T23:22:37.828Z,32.93
2023-01-27T23:23:38.075Z,32.92
2023-01-27T23:24:37.742Z,32.94
2023-01-27T23:25:37.706Z,32.90
2023-01-27T23:26:37.671Z,32.90
2023-01-27T23:27:37.628Z,32.94
2023-01-27T23:28:37.592Z,32.91
2023-01-27T23:29:37.543Z,32.94
2023-01-27T23:30:37.575Z,32.91
2023-01-27T23:31:37.614Z,32.90
2023-01-27T23:32:37.417Z,32.91
2023-01-27T23:33:37.399Z,32.90
2023-01-27T23:34:37.325Z,32.94
2023-01-27T23:35:37.293Z,32.92
2023-01-27T23:36:37.250Z,32.87
2023-01-27T23:37:37.205Z,32.90
2023-01-27T23:38:37.159Z,32.83
2023-01-27T23:39:37.120Z,32.86
2023-01-27T23:40:38.099Z,32.86
2023-01-27T23:41:37.035Z,32.86
2023-01-27T23:42:37.005Z,32.90
2023-01-27T23:43:36.946Z,32.84
2023-01-27T23:44:36.980Z,32.89
2023-01-27T23:45:36.877Z,32.86
2023-01-27T23:46:36.855Z,32.83
2023-01-27T23:47:36.808Z,32.86
2023-01-27T23:48:36.778Z,32.81
2023-01-27T23:49:36.733Z,32.84
2023-01-27T23:50:36.693Z,32.81
2023-01-27T23:51:36.660Z,32.78
2023-01-27T23:52:36.629Z,32.86
2023-01-27T23:53:36.609Z,32.87
2023-01-27T23:54:36.562Z,32.84
2023-01-27T23:55:36.565Z,32.79
2023-01-27T23:56:36.497Z,32.75
2023-01-27T23:57:36.434Z,32.80
2023-01-27T23:58:36.404Z,32.77
2023-01-27T23:59:36.374Z,32.81
